createdAt,value
2023-04-26T00:01:30.790Z,99522.78
2023-04-26T00:03:57.689Z,99517.47
2023-04-26T00:06:24.265Z,99519.63
2023-04-26T00:08:51.389Z,99515.72
2023-04-26T00:11:18.009Z,99514.28
2023-04-26T00:13:44.532Z,99523.78
2023-04-26T00:16:10.921Z,99529.44
2023-04-26T00:18:37.721Z,99530.59
2023-04-26T00:21:04.188Z,99529.31
2023-04-26T00:23:32.453Z,99534.44
2023-04-26T00:25:59.227Z,99531.03
2023-04-26T00:28:25.688Z,99528.47
2023-04-26T00:30:52.196Z,99526.69
2023-04-26T00:33:18.573Z,99528.56
2023-04-26T00:35:45.013Z,99511.06
2023-04-26T00:38:11.408Z,99519.94
2023-04-26T00:40:37.971Z,99513.28
2023-04-26T00:43:06.107Z,99517.53
2023-04-26T00:45:32.920Z,99516.41
2023-04-26T00:48:02.512Z,99510.72
2023-04-26T00:50:30.665Z,99517.91
2023-04-26T00:53:01.676Z,99507.22
2023-04-26T00:55:28.316Z,99502.19
2023-04-26T00:57:56.078Z,99499.78
2023-04-26T01:00:22.745Z,99496.13
2023-04-26T01:02:52.360Z,99502.59
2023-04-26T01:05:19.466Z,99505.31
2023-04-26T01:07:46.440Z,99505.69
2023-04-26T01:10:12.994Z,99508.28
2023-04-26T01:12:39.629Z,99512.03
2023-04-26T01:15:06.909Z,99509.31
2023-04-26T01:17:33.851Z,99514.81
2023-04-26T01:20:00.944Z,99507.13
2023-04-26T01:22:28.514Z,99522.66
2023-04-26T01:24:58.067Z,99520.94
2023-04-26T01:27:24.560Z,99529.06
2023-04-26T01:29:51.899Z,99535.56
2023-04-26T01:32:19.076Z,99529.66
2023-04-26T01:34:46.537Z,99525.41
2023-04-26T01:37:13.667Z,99528.91
2023-04-26T01:39:40.522Z,99522.75
2023-04-26T01:42:08.136Z,99518.31
2023-04-26T01:44:35.059Z,99522.06
2023-04-26T01:47:02.156Z,99514.50
2023-04-26T01:49:29.262Z,99524.38
2023-04-26T01:51:55.829Z,99520.50
2023-04-26T01:54:22.744Z,99522.81
2023-04-26T01:56:49.136Z,99521.09
2023-04-26T01:59:15.643Z,99527.16
2023-04-26T02:01:46.208Z,99521.25
2023-04-26T02:04:12.961Z,99520.19
2023-04-26T02:06:39.538Z,99522.00
2023-04-26T02:09:06.207Z,99519.38
2023-04-26T02:11:32.593Z,99516.66
2023-04-26T02:13:59.178Z,99522.56
2023-04-26T02:16:27.440Z,99518.94
2023-04-26T02:18:54.932Z,99525.00
2023-04-26T02:21:23.061Z,99517.91
2023-04-26T02:23:49.596Z,99516.94
2023-04-26T02:26:16.168Z,99526.63
2023-04-26T02:28:43.162Z,99514.59
2023-04-26T02:31:09.878Z,99514.91
2023-04-26T02:33:36.499Z,99509.00
2023-04-26T02:36:05.045Z,99514.06
2023-04-26T02:38:35.314Z,99511.88
2023-04-26T02:41:03.164Z,99512.88
2023-04-26T02:43:30.403Z,99514.72
2023-04-26T02:45:58.898Z,99521.81
2023-04-26T02:48:25.612Z,99518.31
2023-04-26T02:50:52.887Z,99520.84
2023-04-26T02:53:19.507Z,99513.81
2023-04-26T02:55:47.412Z,99518.22
2023-04-26T02:58:14.012Z,99511.09
2023-04-26T03:00:46.701Z,99511.25
2023-04-26T03:03:13.616Z,99515.75
2023-04-26T03:05:42.029Z,99517.59
2023-04-26T03:08:09.059Z,99514.16
2023-04-26T03:10:35.639Z,99518.03
2023-04-26T03:13:04.231Z,99520.59
2023-04-26T03:15:30.759Z,99511.03
2023-04-26T03:17:58.594Z,99515.59
2023-04-26T03:20:25.670Z,99515.19
2023-04-26T03:22:52.114Z,99523.88
2023-04-26T03:25:18.746Z,99514.03
2023-04-26T03:27:45.365Z,99510.47
2023-04-26T03:30:13.575Z,99516.59
2023-04-26T03:32:40.019Z,99506.94
2023-04-26T03:35:07.278Z,99517.03
2023-04-26T03:37:34.031Z,99518.03
2023-04-26T03:40:00.566Z,99513.03
2023-04-26T03:42:27.047Z,99507.03
2023-04-26T03:44:53.816Z,99501.63
2023-04-26T03:47:20.570Z,99504.19
2023-04-26T03:49:47.286Z,99505.91
2023-04-26T03:52:13.965Z,99504.06
2023-04-26T03:54:40.822Z,99504.06
2023-04-26T03:57:07.438Z,99503.22
2023-04-26T03:59:34.393Z,99503.91
2023-04-26T04:02:01.164Z,99506.00
2023-04-26T04:04:27.738Z,99512.09
2023-04-26T04:06:54.799Z,99511.13
2023-04-26T04:09:21.289Z,99509.75
2023-04-26T04:11:48.034Z,99499.56
2023-04-26T04:14:14.408Z,99501.19
2023-04-26T04:16:41.277Z,99500.66
2023-04-26T04:19:08.033Z,99510.63
2023-04-26T04:21:34.937Z,99510.50
2023-04-26T04:24:01.439Z,99508.63
2023-04-26T04:26:30.947Z,99510.19
2023-04-26T04:28:58.684Z,99503.69
2023-04-26T04:31:25.227Z,99512.09
2023-04-26T04:33:51.892Z,99514.31
2023-04-26T04:36:18.448Z,99519.22
2023-04-26T04:38:45.250Z,99521.59
2023-04-26T04:41:12.224Z,99528.28
2023-04-26T04:43:39.182Z,99523.84
2023-04-26T04:46:05.916Z,99526.09
2023-04-26T04:48:33.508Z,99536.25
2023-04-26T04:51:00.066Z,99529.16
2023-04-26T04:53:26.933Z,99528.09
2023-04-26T04:55:53.546Z,99537.59
2023-04-26T04:58:19.984Z,99525.88
2023-04-26T05:00:46.772Z,99525.25
2023-04-26T05:03:15.645Z,99526.13
2023-04-26T05:05:42.382Z,99523.19
2023-04-26T05:08:08.956Z,99518.41
2023-04-26T05:10:36.111Z,99493.94
2023-04-26T05:13:02.518Z,99480.09
2023-04-26T05:15:29.744Z,99464.25
2023-04-26T05:17:56.274Z,99457.13
2023-04-26T05:20:22.835Z,99460.16
2023-04-26T05:22:49.217Z,99461.78
2023-04-26T05:25:17.072Z,99468.00
2023-04-26T05:27:45.873Z,99473.59
2023-04-26T05:30:12.863Z,99470.94
2023-04-26T05:32:39.865Z,99461.69
2023-04-26T05:35:06.664Z,99474.78
2023-04-26T05:37:33.263Z,99480.56
2023-04-26T05:40:00.471Z,99491.31
2023-04-26T05:42:27.046Z,99493.34
2023-04-26T05:44:59.433Z,99507.09
2023-04-26T05:47:26.315Z,99508.41
2023-04-26T05:49:53.433Z,99508.72
2023-04-26T05:52:19.857Z,99513.03
2023-04-26T05:54:46.401Z,99517.91
2023-04-26T05:57:13.011Z,99526.03
2023-04-26T05:59:40.166Z,99527.75
2023-04-26T06:02:07.043Z,99536.75
2023-04-26T06:04:34.192Z,99537.22
2023-04-26T06:07:01.351Z,99538.56
2023-04-26T06:09:27.899Z,99532.88
2023-04-26T06:11:54.368Z,99540.78
2023-04-26T06:14:29.829Z,99539.53
2023-04-26T06:16:57.642Z,99539.78
2023-04-26T06:19:24.120Z,99543.50
2023-04-26T06:21:52.145Z,99544.94
2023-04-26T06:24:18.591Z,99537.38
2023-04-26T06:26:45.089Z,99541.38
2023-04-26T06:29:11.718Z,99538.78
2023-04-26T06:31:39.297Z,99545.09
2023-04-26T06:34:06.418Z,99542.50
2023-04-26T06:36:32.977Z,99562.13
2023-04-26T06:38:59.681Z,99560.03
2023-04-26T06:41:26.057Z,99562.75
2023-04-26T06:43:53.066Z,99556.22
2023-04-26T06:46:19.809Z,99570.31
2023-04-26T06:48:47.429Z,99568.63
2023-04-26T06:51:13.878Z,99560.13
2023-04-26T06:53:41.461Z,99550.66
2023-04-26T06:56:07.948Z,99565.88
2023-04-26T06:58:34.650Z,99557.25
2023-04-26T07:01:01.249Z,99555.44
2023-04-26T07:03:27.903Z,99551.66
2023-04-26T07:05:56.440Z,99557.72
2023-04-26T07:08:22.853Z,99563.19
2023-04-26T07:10:51.678Z,99556.66
2023-04-26T07:13:18.107Z,99547.69
2023-04-26T07:15:44.726Z,99548.09
2023-04-26T07:18:11.351Z,99547.47
2023-04-26T07:20:37.943Z,99544.63
2023-04-26T07:23:04.439Z,99539.78
2023-04-26T07:25:31.022Z,99538.84
2023-04-26T07:27:57.614Z,99534.78
2023-04-26T07:30:24.212Z,99537.31
2023-04-26T07:32:50.893Z,99544.44
2023-04-26T07:35:17.704Z,99534.44
2023-04-26T07:37:44.777Z,99534.00
2023-04-26T07:40:11.946Z,99527.56
2023-04-26T07:42:39.493Z,99528.75
2023-04-26T07:45:06.868Z,99526.59
2023-04-26T07:47:33.368Z,99527.84
2023-04-26T07:49:59.923Z,99530.91
2023-04-26T07:52:26.356Z,99531.16
2023-04-26T07:54:52.755Z,99533.00
2023-04-26T07:57:20.363Z,99530.53
2023-04-26T07:59:46.789Z,99527.00
2023-04-26T08:02:13.607Z,99539.25
2023-04-26T08:04:48.275Z,99533.72
2023-04-26T08:07:15.424Z,99526.41
2023-04-26T08:09:42.347Z,99528.72
2023-04-26T08:12:08.959Z,99535.13
2023-04-26T08:14:36.146Z,99533.94
2023-04-26T08:17:02.591Z,99539.59
2023-04-26T08:19:32.615Z,99537.25
2023-04-26T08:21:59.304Z,99542.91
2023-04-26T08:24:25.869Z,99532.13
2023-04-26T08:26:52.276Z,99540.63
2023-04-26T08:29:19.346Z,99530.31
2023-04-26T08:31:45.970Z,99541.50
2023-04-26T08:34:13.799Z,99544.75
2023-04-26T08:36:41.796Z,99542.97
2023-04-26T08:39:09.680Z,99527.66
2023-04-26T08:41:37.996Z,99528.56
2023-04-26T08:44:08.772Z,99531.06
2023-04-26T08:46:47.473Z,99515.22
2023-04-26T08:49:27.149Z,99518.06
2023-04-26T08:51:55.041Z,99520.09
2023-04-26T08:54:22.337Z,99524.13
2023-04-26T08:56:49.250Z,99521.47
2023-04-26T08:59:15.952Z,99524.94
2023-04-26T09:01:43.941Z,99529.06
2023-04-26T09:04:11.782Z,99528.56
2023-04-26T09:06:39.776Z,99523.72
2023-04-26T09:09:09.298Z,99526.88
2023-04-26T09:11:55.267Z,99518.72
2023-04-26T09:14:22.357Z,99515.41
2023-04-26T09:16:48.795Z,99515.09
2023-04-26T09:19:15.557Z,99506.47
2023-04-26T09:21:46.992Z,99508.91
2023-04-26T09:24:14.088Z,99519.78
2023-04-26T09:26:42.103Z,99518.59
2023-04-26T09:29:19.045Z,99517.06
2023-04-26T09:31:49.839Z,99521.69
2023-04-26T09:34:16.923Z,99520.31
2023-04-26T09:36:55.649Z,99510.41
2023-04-26T09:39:32.846Z,99511.69
2023-04-26T09:41:59.689Z,99504.34
2023-04-26T09:44:26.336Z,99500.50
2023-04-26T09:47:09.468Z,99502.34
2023-04-26T09:49:51.690Z,99514.53
2023-04-26T09:52:19.249Z,99504.56
2023-04-26T09:54:53.454Z,99508.66
2023-04-26T09:57:22.158Z,99510.75
2023-04-26T09:59:54.805Z,99503.97
2023-04-26T10:02:27.557Z,99506.63
2023-04-26T10:04:56.525Z,99503.03
2023-04-26T10:07:25.861Z,99495.69
2023-04-26T10:09:54.150Z,99488.44
2023-04-26T10:12:20.771Z,99488.91
2023-04-26T10:14:48.468Z,99481.19
2023-04-26T10:17:14.977Z,99471.56
2023-04-26T10:19:46.595Z,99477.72
2023-04-26T10:22:25.758Z,99470.72
2023-04-26T10:24:54.075Z,99482.75
2023-04-26T10:27:43.430Z,99478.66
2023-04-26T10:30:15.835Z,99485.31
2023-04-26T10:33:00.852Z,99488.66
2023-04-26T10:35:29.251Z,99483.75
2023-04-26T10:38:01.613Z,99478.75
2023-04-26T10:40:29.192Z,99477.97
2023-04-26T10:43:19.543Z,99474.72
2023-04-26T10:45:47.765Z,99473.03
2023-04-26T10:48:22.763Z,99462.09
2023-04-26T10:51:01.669Z,99460.53
2023-04-26T10:53:33.388Z,99461.78
2023-04-26T10:55:59.843Z,99469.78
2023-04-26T10:58:28.122Z,99471.59
2023-04-26T11:01:18.964Z,99470.38
2023-04-26T11:03:59.319Z,99458.66
2023-04-26T11:06:28.921Z,99451.06
2023-04-26T11:08:56.123Z,99445.53
2023-04-26T11:11:26.366Z,99450.97
2023-04-26T11:13:52.810Z,99442.09
2023-04-26T11:16:19.644Z,99449.78
2023-04-26T11:18:47.599Z,99447.13
2023-04-26T11:21:18.218Z,99439.13
2023-04-26T11:23:53.816Z,99453.97
2023-04-26T11:26:20.283Z,99440.69
2023-04-26T11:28:49.145Z,99436.25
2023-04-26T11:31:15.995Z,99436.91
2023-04-26T11:33:42.456Z,99443.84
2023-04-26T11:36:09.450Z,99444.97
2023-04-26T11:38:38.231Z,99441.75
2023-04-26T11:41:04.741Z,99441.16
2023-04-26T11:43:39.012Z,99434.63
2023-04-26T11:46:07.776Z,99437.78
2023-04-26T11:48:37.086Z,99435.22
2023-04-26T11:51:05.028Z,99426.09
2023-04-26T11:53:39.610Z,99425.38
2023-04-26T11:56:21.886Z,99427.88
2023-04-26T11:58:50.621Z,99421.72
2023-04-26T12:01:28.331Z,99420.41
2023-04-26T12:03:57.352Z,99406.00
2023-04-26T12:06:43.349Z,99415.50
2023-04-26T12:09:11.254Z,99413.63
2023-04-26T12:11:38.588Z,99421.03
2023-04-26T12:14:05.902Z,99413.09
2023-04-26T12:16:32.707Z,99414.59
2023-04-26T12:18:59.211Z,99428.59
2023-04-26T12:21:28.863Z,99421.72
2023-04-26T12:23:57.012Z,99419.97
2023-04-26T12:26:42.819Z,99415.72
2023-04-26T12:29:09.365Z,99416.13
2023-04-26T12:31:37.362Z,99405.38
2023-04-26T12:34:03.863Z,99414.75
2023-04-26T12:36:31.592Z,99401.28
2023-04-26T12:38:58.064Z,99401.78
2023-04-26T12:41:25.128Z,99405.28
2023-04-26T12:43:51.570Z,99401.09
2023-04-26T12:46:18.114Z,99409.19
2023-04-26T12:48:44.728Z,99400.72
2023-04-26T12:51:11.115Z,99406.06
2023-04-26T12:53:38.120Z,99403.59
2023-04-26T12:56:04.834Z,99400.63
2023-04-26T12:58:31.878Z,99393.94
2023-04-26T13:00:58.269Z,99408.34
2023-04-26T13:03:25.100Z,99412.25
2023-04-26T13:05:52.519Z,99403.53
2023-04-26T13:08:18.977Z,99415.59
2023-04-26T13:10:46.014Z,99403.72
2023-04-26T13:13:12.954Z,99392.28
2023-04-26T13:15:39.842Z,99398.19
2023-04-26T13:18:06.422Z,99391.38
2023-04-26T13:20:33.005Z,99399.47
2023-04-26T13:22:59.442Z,99391.09
2023-04-26T13:25:25.994Z,99395.56
2023-04-26T13:27:54.623Z,99397.34
2023-04-26T13:30:21.249Z,99387.00
2023-04-26T13:32:48.473Z,99380.47
2023-04-26T13:35:15.175Z,99389.25
2023-04-26T13:37:42.295Z,99381.28
2023-04-26T13:40:11.158Z,99386.06
2023-04-26T13:42:38.360Z,99373.97
2023-04-26T13:45:10.251Z,99372.34
2023-04-26T13:47:37.146Z,99369.53
2023-04-26T13:50:04.512Z,99370.69
2023-04-26T13:52:33.098Z,99364.88
2023-04-26T13:55:00.238Z,99369.78
2023-04-26T13:57:26.747Z,99369.44
2023-04-26T13:59:53.112Z,99368.06
2023-04-26T14:02:19.826Z,99380.28
2023-04-26T14:04:46.505Z,99377.09
2023-04-26T14:07:13.229Z,99382.19
2023-04-26T14:09:39.632Z,99383.41
2023-04-26T14:12:08.560Z,99378.06
2023-04-26T14:14:36.062Z,99366.84
2023-04-26T14:17:03.773Z,99370.00
2023-04-26T14:19:30.482Z,99361.06
2023-04-26T14:21:56.987Z,99357.00
2023-04-26T14:24:23.809Z,99354.97
2023-04-26T14:26:50.200Z,99355.63
2023-04-26T14:29:16.644Z,99362.22
2023-04-26T14:31:43.075Z,99362.44
2023-04-26T14:34:10.165Z,99361.66
2023-04-26T14:36:36.754Z,99365.63
2023-04-26T14:39:03.551Z,99367.28
2023-04-26T14:41:30.062Z,99366.75
2023-04-26T14:43:56.637Z,99369.69
2023-04-26T14:46:23.100Z,99364.75
2023-04-26T14:48:49.537Z,99363.91
2023-04-26T14:51:16.133Z,99365.81
2023-04-26T14:53:42.556Z,99354.44
2023-04-26T14:56:09.428Z,99358.66
2023-04-26T14:58:36.335Z,99355.19
2023-04-26T15:01:03.394Z,99347.56
2023-04-26T15:03:30.114Z,99345.84
2023-04-26T15:05:56.954Z,99334.94
2023-04-26T15:08:23.333Z,99339.50
2023-04-26T15:10:51.166Z,99340.97
2023-04-26T15:13:17.913Z,99346.09
2023-04-26T15:15:44.803Z,99335.59
2023-04-26T15:18:11.551Z,99330.44
2023-04-26T15:20:41.446Z,99345.53
2023-04-26T15:23:08.291Z,99346.47
2023-04-26T15:25:36.464Z,99357.75
2023-04-26T15:28:03.441Z,99336.53
2023-04-26T15:30:30.611Z,99343.63
2023-04-26T15:32:58.066Z,99350.88
2023-04-26T15:35:24.936Z,99346.72
2023-04-26T15:37:54.259Z,99340.16
2023-04-26T15:40:24.553Z,99339.81
2023-04-26T15:42:52.345Z,99333.69
2023-04-26T15:45:19.395Z,99322.88
2023-04-26T15:47:46.371Z,99315.00
2023-04-26T15:50:13.449Z,99307.22
2023-04-26T15:52:40.780Z,99313.03
2023-04-26T15:55:07.957Z,99315.13
2023-04-26T15:57:34.985Z,99310.97
2023-04-26T16:00:01.959Z,99312.63
2023-04-26T16:02:28.904Z,99327.84
2023-04-26T16:04:56.218Z,99320.63
2023-04-26T16:07:23.162Z,99321.06
2023-04-26T16:09:49.601Z,99324.59
2023-04-26T16:12:16.236Z,99323.53
2023-04-26T16:14:42.658Z,99313.69
2023-04-26T16:17:09.184Z,99314.44
2023-04-26T16:19:35.648Z,99323.81
2023-04-26T16:22:02.082Z,99323.34
2023-04-26T16:24:29.686Z,99324.22
2023-04-26T16:26:56.413Z,99317.34
2023-04-26T16:29:22.976Z,99320.03
2023-04-26T16:31:49.964Z,99319.09
2023-04-26T16:34:16.825Z,99320.63
2023-04-26T16:36:43.415Z,99321.03
2023-04-26T16:39:12.582Z,99321.66
2023-04-26T16:41:40.816Z,99327.91
2023-04-26T16:44:07.728Z,99321.88
2023-04-26T16:46:34.267Z,99321.03
2023-04-26T16:49:00.845Z,99313.66
2023-04-26T16:51:27.718Z,99315.72
2023-04-26T16:53:54.229Z,99320.75
2023-04-26T16:56:20.806Z,99319.44
2023-04-26T16:58:47.638Z,99321.50
2023-04-26T17:01:14.061Z,99317.28
2023-04-26T17:03:41.670Z,99330.38
2023-04-26T17:06:11.163Z,99320.84
2023-04-26T17:08:37.710Z,99316.13
2023-04-26T17:11:04.373Z,99325.72
2023-04-26T17:13:33.200Z,99326.06
2023-04-26T17:15:59.734Z,99328.81
2023-04-26T17:18:26.637Z,99323.34
2023-04-26T17:20:56.557Z,99331.59
2023-04-26T17:23:23.212Z,99332.72
2023-04-26T17:25:49.657Z,99331.84
2023-04-26T17:28:16.599Z,99336.00
2023-04-26T17:30:43.470Z,99333.91
2023-04-26T17:33:10.098Z,99336.16
2023-04-26T17:35:36.513Z,99340.44
2023-04-26T17:38:03.050Z,99328.56
2023-04-26T17:40:30.030Z,99334.66
2023-04-26T17:42:56.414Z,99333.69
2023-04-26T17:45:23.413Z,99335.22
2023-04-26T17:47:49.884Z,99332.41
2023-04-26T17:50:18.059Z,99342.69
2023-04-26T17:52:44.427Z,99340.84
2023-04-26T17:55:11.214Z,99342.69
2023-04-26T17:57:37.710Z,99346.50
2023-04-26T18:00:06.694Z,99347.59
2023-04-26T18:02:33.483Z,99339.25
2023-04-26T18:05:00.792Z,99345.72
2023-04-26T18:07:27.198Z,99351.34
2023-04-26T18:09:53.759Z,99352.06
2023-04-26T18:12:20.168Z,99353.59
2023-04-26T18:14:46.805Z,99357.16
2023-04-26T18:17:14.954Z,99356.91
2023-04-26T18:19:41.958Z,99367.88
2023-04-26T18:22:08.727Z,99362.34
2023-04-26T18:24:35.567Z,99362.72
2023-04-26T18:27:02.660Z,99369.84
2023-04-26T18:29:29.761Z,99369.69
2023-04-26T18:31:56.706Z,99374.72
2023-04-26T18:34:23.704Z,99382.44
2023-04-26T18:36:50.497Z,99377.97
2023-04-26T18:39:17.028Z,99375.09
2023-04-26T18:41:43.728Z,99379.06
2023-04-26T18:44:16.142Z,99386.66
2023-04-26T18:46:43.383Z,99380.03
2023-04-26T18:49:10.669Z,99396.19
2023-04-26T18:51:37.141Z,99397.44
2023-04-26T18:54:04.529Z,99395.53
2023-04-26T18:56:31.522Z,99391.41
2023-04-26T18:58:58.277Z,99397.59
2023-04-26T19:01:25.083Z,99402.34
2023-04-26T19:03:51.788Z,99400.91
2023-04-26T19:06:18.349Z,99412.34
2023-04-26T19:08:45.213Z,99408.81
2023-04-26T19:11:12.381Z,99401.28
2023-04-26T19:13:40.303Z,99422.97
2023-04-26T19:16:08.206Z,99422.88
2023-04-26T19:18:40.341Z,99430.63
2023-04-26T19:21:08.171Z,99427.00
2023-04-26T19:23:35.151Z,99421.50
2023-04-26T19:26:03.818Z,99431.09
2023-04-26T19:28:31.329Z,99435.31
2023-04-26T19:30:58.309Z,99436.38
2023-04-26T19:33:26.430Z,99437.00
2023-04-26T19:35:53.344Z,99434.81
2023-04-26T19:38:19.888Z,99442.09
2023-04-26T19:40:46.276Z,99432.38
2023-04-26T19:43:12.898Z,99446.66
2023-04-26T19:45:40.842Z,99444.34
2023-04-26T19:48:17.019Z,99449.91
2023-04-26T19:50:45.735Z,99456.06
2023-04-26T19:53:14.562Z,99453.00
2023-04-26T19:55:42.326Z,99450.34
2023-04-26T19:58:12.888Z,99452.13
2023-04-26T20:00:40.255Z,99449.34
2023-04-26T20:03:07.123Z,99451.41
2023-04-26T20:05:34.131Z,99463.91
2023-04-26T20:08:01.386Z,99462.66
2023-04-26T20:10:32.470Z,99463.00
2023-04-26T20:13:00.204Z,99467.59
2023-04-26T20:15:27.830Z,99466.97
2023-04-26T20:17:54.450Z,99471.88
2023-04-26T20:20:21.582Z,99471.25
2023-04-26T20:22:48.040Z,99476.16
2023-04-26T20:25:14.542Z,99478.09
2023-04-26T20:27:41.177Z,99476.59
2023-04-26T20:30:08.383Z,99465.72
2023-04-26T20:32:35.376Z,99466.56
2023-04-26T20:35:05.105Z,99470.19
2023-04-26T20:37:31.936Z,99469.13
2023-04-26T20:39:58.384Z,99469.75
2023-04-26T20:42:25.390Z,99466.66
2023-04-26T20:44:52.191Z,99470.19
2023-04-26T20:47:19.110Z,99471.63
2023-04-26T20:49:45.573Z,99486.03
2023-04-26T20:52:13.168Z,99486.25
2023-04-26T20:54:39.657Z,99485.72
2023-04-26T20:57:06.631Z,99482.22
2023-04-26T20:59:33.133Z,99482.84
2023-04-26T21:01:59.830Z,99479.47
2023-04-26T21:04:26.405Z,99472.53
2023-04-26T21:06:53.329Z,99487.75
2023-04-26T21:09:20.078Z,99483.00
2023-04-26T21:11:46.505Z,99484.38
2023-04-26T21:14:13.690Z,99476.41
2023-04-26T21:16:40.503Z,99477.78
2023-04-26T21:19:08.375Z,99483.75
2023-04-26T21:21:35.414Z,99482.34
2023-04-26T21:24:03.205Z,99488.75
2023-04-26T21:26:30.511Z,99484.16
2023-04-26T21:28:57.143Z,99490.97
2023-04-26T21:31:23.941Z,99490.44
2023-04-26T21:33:50.737Z,99487.78
2023-04-26T21:36:17.601Z,99489.06
2023-04-26T21:38:44.189Z,99495.00
2023-04-26T21:41:10.877Z,99493.97
2023-04-26T21:43:37.321Z,99498.09
2023-04-26T21:46:04.078Z,99496.69
2023-04-26T21:48:31.020Z,99493.19
2023-04-26T21:50:57.517Z,99503.22
2023-04-26T21:53:24.205Z,99503.63
2023-04-26T21:55:54.042Z,99508.00
2023-04-26T21:58:21.544Z,99507.03
2023-04-26T22:00:49.080Z,99510.56
2023-04-26T22:03:16.286Z,99501.00
2023-04-26T22:05:43.152Z,99506.41
2023-04-26T22:08:09.984Z,99506.94
2023-04-26T22:10:36.719Z,99503.09
2023-04-26T22:13:03.444Z,99515.25
2023-04-26T22:15:30.101Z,99513.34
2023-04-26T22:17:56.675Z,99510.47
2023-04-26T22:20:23.379Z,99510.31
2023-04-26T22:22:49.858Z,99507.03
2023-04-26T22:25:16.639Z,99502.69
2023-04-26T22:27:43.470Z,99510.88
2023-04-26T22:30:24.122Z,99514.50
2023-04-26T22:32:55.040Z,99516.63
2023-04-26T22:35:22.193Z,99516.34
2023-04-26T22:37:49.996Z,99525.91
2023-04-26T22:40:16.708Z,99514.50
2023-04-26T22:42:43.632Z,99525.16
2023-04-26T22:45:11.696Z,99522.06
2023-04-26T22:47:38.907Z,99524.72
2023-04-26T22:50:07.816Z,99529.94
2023-04-26T22:52:35.034Z,99519.41
2023-04-26T22:55:01.892Z,99523.69
2023-04-26T22:57:29.354Z,99527.06
2023-04-26T22:59:56.333Z,99521.31
2023-04-26T23:02:23.767Z,99526.00
2023-04-26T23:04:50.485Z,99528.97
2023-04-26T23:07:17.035Z,99523.75
2023-04-26T23:09:43.751Z,99522.59
2023-04-26T23:12:10.556Z,99524.28
2023-04-26T23:14:37.644Z,99520.78
2023-04-26T23:17:04.613Z,99519.06
2023-04-26T23:19:31.442Z,99517.59
2023-04-26T23:21:57.850Z,99533.88
2023-04-26T23:24:24.490Z,99523.22
2023-04-26T23:26:51.228Z,99525.75
2023-04-26T23:29:17.850Z,99527.22
2023-04-26T23:31:44.862Z,99524.09
2023-04-26T23:34:11.278Z,99529.63
2023-04-26T23:36:38.213Z,99534.41
2023-04-26T23:39:04.709Z,99538.97
2023-04-26T23:41:31.285Z,99528.53
2023-04-26T23:43:57.747Z,99535.00
2023-04-26T23:46:24.250Z,99537.78
2023-04-26T23:48:51.330Z,99535.97
2023-04-26T23:51:18.254Z,99530.63
2023-04-26T23:53:44.949Z,99530.88
2023-04-26T23:56:12.068Z,99534.28
2023-04-26T23:58:38.622Z,99536.19
